createdAt,value
2023-05-10T00:02:01.450Z,4.17
2023-05-10T00:05:12.291Z,4.20
2023-05-10T00:08:01.230Z,3.43
2023-05-10T00:10:44.201Z,2.87
2023-05-10T00:16:23.166Z,3.60
2023-05-10T00:19:23.001Z,3.60
2023-05-10T00:22:00.878Z,3.70
2023-05-10T00:25:12.553Z,3.27
2023-05-10T00:28:11.928Z,3.70
2023-05-10T00:31:05.966Z,4.43
2023-05-10T00:34:25.284Z,4.17
2023-05-10T00:36:53.676Z,3.23
2023-05-10T00:39:31.072Z,3.33
2023-05-10T00:42:05.519Z,3.60
2023-05-10T00:45:03.575Z,3.60
2023-05-10T00:48:04.299Z,3.87
2023-05-10T00:50:46.373Z,3.10
2023-05-10T00:54:33.723Z,3.40
2023-05-10T00:57:15.359Z,3.57
2023-05-10T01:00:19.691Z,3.57
2023-05-10T01:03:20.374Z,3.80
2023-05-10T01:06:02.201Z,3.87
2023-05-10T01:09:03.652Z,2.80
2023-05-10T01:12:03.754Z,4.10
2023-05-10T01:15:30.070Z,3.67
2023-05-10T01:18:18.467Z,3.93
2023-05-10T01:20:54.661Z,3.67
2023-05-10T01:24:16.664Z,3.90
2023-05-10T01:27:28.713Z,3.50
2023-05-10T01:30:38.065Z,3.87
2023-05-10T01:33:15.252Z,3.80
2023-05-10T01:36:02.588Z,4.17
2023-05-10T01:38:38.642Z,3.60
2023-05-10T01:41:30.203Z,3.20
2023-05-10T01:44:11.578Z,4.10
2023-05-10T01:46:59.634Z,4.00
2023-05-10T01:49:47.561Z,3.30
2023-05-10T01:52:20.405Z,3.23
2023-05-10T01:54:53.038Z,4.13
2023-05-10T01:57:22.427Z,2.93
2023-05-10T02:00:01.196Z,3.57
2023-05-10T02:02:34.658Z,2.83
2023-05-10T02:05:06.836Z,4.23
2023-05-10T02:07:36.194Z,2.70
2023-05-10T02:10:05.331Z,4.20
2023-05-10T02:12:47.829Z,4.27
2023-05-10T02:15:22.362Z,3.70
2023-05-10T02:17:52.252Z,4.10
2023-05-10T02:20:35.223Z,3.90
2023-05-10T02:23:08.952Z,4.17
2023-05-10T02:28:36.020Z,5.50
2023-05-10T02:31:11.765Z,3.57
2023-05-10T02:33:43.449Z,4.67
2023-05-10T02:36:18.171Z,4.20
2023-05-10T02:38:49.804Z,4.07
2023-05-10T02:41:27.132Z,4.23
2023-05-10T02:43:59.845Z,3.63
2023-05-10T02:46:30.044Z,4.50
2023-05-10T02:48:58.372Z,3.57
2023-05-10T02:51:34.733Z,4.23
2023-05-10T02:54:09.242Z,4.50
2023-05-10T02:56:43.230Z,4.60
2023-05-10T02:59:12.197Z,3.70
2023-05-10T03:01:40.826Z,4.53
2023-05-10T03:04:10.057Z,4.90
2023-05-10T03:06:40.204Z,4.37
2023-05-10T03:09:10.390Z,4.10
2023-05-10T03:11:48.621Z,3.80
2023-05-10T03:14:24.418Z,4.57
2023-05-10T03:16:58.993Z,3.60
2023-05-10T03:19:32.220Z,4.20
2023-05-10T03:22:07.440Z,4.50
2023-05-10T03:24:37.921Z,4.00
2023-05-10T03:27:08.478Z,3.53
2023-05-10T03:29:39.434Z,4.90
2023-05-10T03:32:07.801Z,4.30
2023-05-10T03:34:37.596Z,4.10
2023-05-10T03:37:07.942Z,4.50
2023-05-10T03:39:36.503Z,4.53
2023-05-10T03:42:07.368Z,4.60
2023-05-10T03:44:35.630Z,4.07
2023-05-10T03:47:04.247Z,4.37
2023-05-10T03:49:32.605Z,4.57
2023-05-10T03:52:04.679Z,4.50
2023-05-10T03:54:34.721Z,4.60
2023-05-10T03:57:03.968Z,4.70
2023-05-10T03:59:34.758Z,4.07
2023-05-10T04:02:04.670Z,4.53
2023-05-10T04:04:33.051Z,4.07
2023-05-10T04:07:01.319Z,4.63
2023-05-10T04:09:29.529Z,4.43
2023-05-10T04:12:00.925Z,5.00
2023-05-10T04:14:30.579Z,4.70
2023-05-10T04:16:59.312Z,4.60
2023-05-10T04:19:34.889Z,4.70
2023-05-10T04:22:05.839Z,4.47
2023-05-10T04:24:34.036Z,4.40
2023-05-10T04:27:03.680Z,3.80
2023-05-10T04:29:32.054Z,3.57
2023-05-10T04:32:00.486Z,5.93
2023-05-10T04:34:28.856Z,4.87
2023-05-10T04:36:57.088Z,4.80
2023-05-10T04:39:25.318Z,3.93
2023-05-10T04:41:54.289Z,3.80
2023-05-10T04:44:23.920Z,4.30
2023-05-10T04:46:53.915Z,4.27
2023-05-10T04:49:23.561Z,3.60
2023-05-10T04:52:02.848Z,5.27
2023-05-10T04:54:31.215Z,4.83
2023-05-10T04:57:04.654Z,5.30
2023-05-10T04:59:34.434Z,4.57
2023-05-10T05:02:09.447Z,4.40
2023-05-10T05:04:38.239Z,4.57
2023-05-10T05:07:09.034Z,4.87
2023-05-10T05:09:43.191Z,4.77
2023-05-10T05:12:15.096Z,4.70
2023-05-10T05:14:46.440Z,4.50
2023-05-10T05:17:22.637Z,4.60
2023-05-10T05:19:51.397Z,4.50
2023-05-10T05:22:20.515Z,3.53
2023-05-10T05:24:48.624Z,4.00
2023-05-10T05:27:16.963Z,4.60
2023-05-10T05:29:47.205Z,4.10
2023-05-10T05:32:15.470Z,4.20
2023-05-10T05:34:44.054Z,4.60
2023-05-10T05:37:15.222Z,5.97
2023-05-10T05:39:44.499Z,4.50
2023-05-10T05:42:13.481Z,5.70
2023-05-10T05:44:42.065Z,5.83
2023-05-10T05:47:16.414Z,6.47
2023-05-10T05:49:48.166Z,5.60
2023-05-10T05:52:18.742Z,4.47
2023-05-10T05:54:47.061Z,4.70
2023-05-10T05:57:17.748Z,4.40
2023-05-10T05:59:46.756Z,5.00
2023-05-10T06:02:16.929Z,4.43
2023-05-10T06:04:46.549Z,4.23
2023-05-10T06:07:14.985Z,4.27
2023-05-10T06:09:43.563Z,4.07
2023-05-10T06:12:14.233Z,4.90
2023-05-10T06:14:42.354Z,3.73
2023-05-10T06:17:10.516Z,4.50
2023-05-10T06:19:40.121Z,4.80
2023-05-10T06:22:08.556Z,4.57
2023-05-10T06:24:37.225Z,4.30
2023-05-10T06:27:05.480Z,4.37
2023-05-10T06:29:33.695Z,4.10
2023-05-10T06:32:02.275Z,4.40
2023-05-10T06:34:30.549Z,4.67
2023-05-10T06:37:00.123Z,4.87
2023-05-10T06:39:28.484Z,4.40
2023-05-10T06:41:56.688Z,4.60
2023-05-10T06:44:25.044Z,4.10
2023-05-10T06:46:54.542Z,5.57
2023-05-10T06:49:22.739Z,4.83
2023-05-10T06:51:50.919Z,5.00
2023-05-10T06:54:21.161Z,4.17
2023-05-10T06:56:49.411Z,4.37
2023-05-10T06:59:18.225Z,4.77
2023-05-10T07:01:46.601Z,4.80
2023-05-10T07:04:14.897Z,4.07
2023-05-10T07:06:43.190Z,4.73
2023-05-10T07:09:11.408Z,4.67
2023-05-10T07:11:41.039Z,4.83
2023-05-10T07:14:09.337Z,4.57
2023-05-10T07:16:37.609Z,3.97
2023-05-10T07:19:06.829Z,4.63
2023-05-10T07:21:36.181Z,3.97
2023-05-10T07:24:04.667Z,5.03
2023-05-10T07:26:32.943Z,3.97
2023-05-10T07:29:03.487Z,5.00
2023-05-10T07:31:31.709Z,4.60
2023-05-10T07:34:00.067Z,4.13
2023-05-10T07:36:28.862Z,4.50
2023-05-10T07:38:58.455Z,5.00
2023-05-10T07:41:27.030Z,4.40
2023-05-10T07:43:55.262Z,4.40
2023-05-10T07:46:24.922Z,4.37
2023-05-10T07:48:53.161Z,4.07
2023-05-10T07:51:21.285Z,4.33
2023-05-10T07:53:49.486Z,4.53
2023-05-10T07:56:26.213Z,4.30
2023-05-10T07:58:54.366Z,4.57
2023-05-10T08:01:24.254Z,3.53
2023-05-10T08:03:54.316Z,4.23
2023-05-10T08:06:23.233Z,3.83
2023-05-10T08:08:51.758Z,4.63
2023-05-10T08:11:21.527Z,4.60
2023-05-10T08:13:51.133Z,5.20
2023-05-10T08:16:19.477Z,5.13
2023-05-10T08:18:50.270Z,4.43
2023-05-10T08:21:18.486Z,5.10
2023-05-10T08:23:46.736Z,4.43
2023-05-10T08:26:14.956Z,4.70
2023-05-10T08:28:43.215Z,4.20
2023-05-10T08:31:13.668Z,3.73
2023-05-10T08:33:43.768Z,4.03
2023-05-10T08:36:15.249Z,3.90
2023-05-10T08:38:43.930Z,4.17
2023-05-10T08:41:12.491Z,4.43
2023-05-10T08:43:42.573Z,4.30
2023-05-10T08:46:12.350Z,4.37
2023-05-10T08:48:41.266Z,4.63
2023-05-10T08:51:10.621Z,4.70
2023-05-10T08:53:40.286Z,3.97
2023-05-10T08:56:09.211Z,4.50
2023-05-10T08:58:37.794Z,4.50
2023-05-10T09:01:06.662Z,4.10
2023-05-10T09:03:34.846Z,4.00
2023-05-10T09:06:03.681Z,4.67
2023-05-10T09:08:32.231Z,4.50
2023-05-10T09:11:04.072Z,5.37
2023-05-10T09:13:32.607Z,3.93
2023-05-10T09:16:09.877Z,4.37
2023-05-10T09:18:42.151Z,4.43
2023-05-10T09:21:11.054Z,4.53
2023-05-10T09:23:39.224Z,4.40
2023-05-10T09:26:09.878Z,5.13
2023-05-10T09:28:53.694Z,4.67
2023-05-10T09:31:22.001Z,4.23
2023-05-10T09:33:51.517Z,3.20
2023-05-10T09:36:19.798Z,4.60
2023-05-10T09:38:49.124Z,3.80
2023-05-10T09:41:26.120Z,3.70
2023-05-10T09:43:58.266Z,4.17
2023-05-10T09:46:27.073Z,4.00
2023-05-10T09:48:55.796Z,3.97
2023-05-10T09:51:27.897Z,3.60
2023-05-10T09:54:11.797Z,4.40
2023-05-10T09:56:41.927Z,4.00
2023-05-10T09:59:11.652Z,3.80
2023-05-10T10:01:40.380Z,4.67
2023-05-10T10:04:11.075Z,4.60
2023-05-10T10:06:39.804Z,4.37
2023-05-10T10:09:08.805Z,4.20
2023-05-10T10:11:40.048Z,4.60
2023-05-10T10:14:10.010Z,3.60
2023-05-10T10:16:45.831Z,3.73
2023-05-10T10:19:20.754Z,3.50
2023-05-10T10:21:48.945Z,3.40
2023-05-10T10:24:17.235Z,4.00
2023-05-10T10:26:45.843Z,3.53
2023-05-10T10:29:23.350Z,4.13
2023-05-10T10:31:59.695Z,4.00
2023-05-10T10:34:30.022Z,4.10
2023-05-10T10:36:59.401Z,4.30
2023-05-10T10:39:27.731Z,4.30
2023-05-10T10:41:57.496Z,4.03
2023-05-10T10:44:35.994Z,3.77
2023-05-10T10:47:09.467Z,3.80
2023-05-10T10:50:08.548Z,4.43
2023-05-10T10:52:38.467Z,3.93
2023-05-10T10:55:09.495Z,4.87
2023-05-10T10:57:46.897Z,4.80
2023-05-10T11:00:28.937Z,3.83
2023-05-10T11:03:03.038Z,4.03
2023-05-10T11:05:42.573Z,3.50
2023-05-10T11:08:19.190Z,3.80
2023-05-10T11:11:10.994Z,5.20
2023-05-10T11:13:47.249Z,5.13
2023-05-10T11:16:21.350Z,4.73
2023-05-10T11:19:04.036Z,5.40
2023-05-10T11:21:33.654Z,5.20
2023-05-10T11:24:07.019Z,4.63
2023-05-10T11:26:37.702Z,4.30
2023-05-10T11:29:07.418Z,4.27
2023-05-10T11:31:37.557Z,4.30
2023-05-10T11:34:06.729Z,5.23
2023-05-10T11:36:36.819Z,4.63
2023-05-10T11:39:05.741Z,4.80
2023-05-10T11:41:34.327Z,4.40
2023-05-10T11:44:02.650Z,4.63
2023-05-10T11:46:31.269Z,5.00
2023-05-10T11:49:05.316Z,4.10
2023-05-10T11:51:36.796Z,4.20
2023-05-10T11:54:09.692Z,4.60
2023-05-10T11:56:46.146Z,5.60
2023-05-10T11:59:16.923Z,4.90
2023-05-10T12:01:45.943Z,4.80
2023-05-10T12:04:16.020Z,3.83
2023-05-10T12:06:47.625Z,4.90
2023-05-10T12:09:19.214Z,4.10
2023-05-10T12:11:51.556Z,4.40
2023-05-10T12:14:20.971Z,4.63
2023-05-10T12:16:49.929Z,4.70
2023-05-10T12:19:22.173Z,4.60
2023-05-10T12:21:50.610Z,4.07
2023-05-10T12:24:20.597Z,4.50
2023-05-10T12:26:49.443Z,4.90
2023-05-10T12:29:19.070Z,4.30
2023-05-10T12:31:54.931Z,3.90
2023-05-10T12:34:36.520Z,4.53
2023-05-10T12:37:05.647Z,5.40
2023-05-10T12:39:41.806Z,4.30
2023-05-10T12:42:11.013Z,4.23
2023-05-10T12:44:39.665Z,4.37
2023-05-10T12:47:07.988Z,4.40
2023-05-10T12:49:37.603Z,3.83
2023-05-10T12:52:06.125Z,4.43
2023-05-10T12:54:34.349Z,4.80
2023-05-10T12:57:03.288Z,4.43
2023-05-10T12:59:32.692Z,4.47
2023-05-10T13:02:01.854Z,4.67
2023-05-10T13:04:30.151Z,4.57
2023-05-10T13:07:00.538Z,4.30
2023-05-10T13:09:30.411Z,4.00
2023-05-10T13:11:58.900Z,3.80
2023-05-10T13:14:27.434Z,3.90
2023-05-10T13:16:58.914Z,4.60
2023-05-10T13:19:30.716Z,4.20
2023-05-10T13:22:00.522Z,4.60
2023-05-10T13:24:28.913Z,4.80
2023-05-10T13:26:57.291Z,4.50
2023-05-10T13:29:25.679Z,4.97
2023-05-10T13:31:54.455Z,5.07
2023-05-10T13:34:23.900Z,5.20
2023-05-10T13:36:53.971Z,5.07
2023-05-10T13:39:23.912Z,4.80
2023-05-10T13:41:53.283Z,4.63
2023-05-10T13:44:22.767Z,4.80
2023-05-10T13:46:51.129Z,4.37
2023-05-10T13:49:20.092Z,4.43
2023-05-10T13:51:48.485Z,4.00
2023-05-10T13:54:18.505Z,4.03
2023-05-10T13:56:49.617Z,3.93
2023-05-10T13:59:18.327Z,4.23
2023-05-10T14:01:47.900Z,4.30
2023-05-10T14:04:16.932Z,4.10
2023-05-10T14:06:45.928Z,4.27
2023-05-10T14:09:15.170Z,3.60
2023-05-10T14:11:44.362Z,4.30
2023-05-10T14:14:17.309Z,3.93
2023-05-10T14:16:48.755Z,4.03
2023-05-10T14:19:18.916Z,3.93
2023-05-10T14:21:52.283Z,4.30
2023-05-10T14:24:20.748Z,3.23
2023-05-10T14:26:48.989Z,4.00
2023-05-10T14:29:20.525Z,4.27
2023-05-10T14:31:49.282Z,4.20
2023-05-10T14:34:18.146Z,4.23
2023-05-10T14:36:49.902Z,4.30
2023-05-10T14:39:18.404Z,4.40
2023-05-10T14:41:48.215Z,4.13
2023-05-10T14:44:19.081Z,4.50
2023-05-10T14:46:49.417Z,4.60
2023-05-10T14:49:17.797Z,4.30
2023-05-10T14:51:47.086Z,4.40
2023-05-10T14:54:16.279Z,4.00
2023-05-10T14:56:46.524Z,4.50
2023-05-10T14:59:15.574Z,3.97
2023-05-10T15:01:45.903Z,3.73
2023-05-10T15:04:17.733Z,3.83
2023-05-10T15:06:47.224Z,3.10
2023-05-10T15:09:17.097Z,3.80
2023-05-10T15:11:47.465Z,4.13
2023-05-10T15:14:15.995Z,4.30
2023-05-10T15:16:45.987Z,3.37
2023-05-10T15:19:14.795Z,3.57
2023-05-10T15:21:45.602Z,3.80
2023-05-10T15:24:15.649Z,3.83
2023-05-10T15:26:48.424Z,3.33
2023-05-10T15:29:23.165Z,4.03
2023-05-10T15:31:53.307Z,3.33
2023-05-10T15:37:38.595Z,3.77
2023-05-10T15:40:12.143Z,4.10
2023-05-10T15:52:47.712Z,3.70
2023-05-10T15:55:19.104Z,3.03
2023-05-10T15:57:50.476Z,3.47
2023-05-10T16:00:21.678Z,3.10
2023-05-10T16:02:49.996Z,3.47
2023-05-10T16:05:20.009Z,3.43
2023-05-10T16:07:49.236Z,3.27
2023-05-10T16:10:17.511Z,4.00
2023-05-10T16:12:47.675Z,3.87
2023-05-10T16:15:16.552Z,4.20
2023-05-10T16:17:45.500Z,3.53
2023-05-10T16:20:14.118Z,4.03
2023-05-10T16:22:44.850Z,5.73
2023-05-10T16:25:19.019Z,5.80
2023-05-10T16:27:48.560Z,3.77
2023-05-10T16:30:17.642Z,4.30
2023-05-10T16:32:47.642Z,3.50
2023-05-10T16:35:16.897Z,3.50
2023-05-10T16:37:47.327Z,3.80
2023-05-10T16:40:18.006Z,3.00
2023-05-10T16:42:47.297Z,3.90
2023-05-10T16:45:17.682Z,3.30
2023-05-10T16:47:47.065Z,3.10
2023-05-10T16:50:17.547Z,3.43
2023-05-10T16:52:49.497Z,3.37
2023-05-10T16:55:19.886Z,3.13
2023-05-10T16:57:48.954Z,3.20
2023-05-10T17:00:21.189Z,2.90
2023-05-10T17:02:50.408Z,3.47
2023-05-10T17:05:19.950Z,2.87
2023-05-10T17:07:51.078Z,3.30
2023-05-10T17:10:20.514Z,3.73
2023-05-10T17:12:49.837Z,2.90
2023-05-10T17:15:19.944Z,3.50
2023-05-10T17:17:49.423Z,8.40
2023-05-10T17:20:18.700Z,12.70
2023-05-10T17:22:47.828Z,4.97
2023-05-10T17:25:18.746Z,3.20
2023-05-10T17:27:48.330Z,3.77
2023-05-10T17:30:17.588Z,3.40
2023-05-10T17:32:46.872Z,3.80
2023-05-10T17:35:16.355Z,3.00
2023-05-10T17:37:45.828Z,3.00
2023-05-10T17:40:15.068Z,3.20
2023-05-10T17:42:47.966Z,4.90
2023-05-10T17:45:17.655Z,5.50
2023-05-10T17:47:47.058Z,3.20
2023-05-10T17:50:16.431Z,3.33
2023-05-10T17:52:45.610Z,3.10
2023-05-10T17:55:15.384Z,2.40
2023-05-10T17:57:46.687Z,2.10
2023-05-10T18:00:17.477Z,3.00
2023-05-10T18:02:46.932Z,2.63
2023-05-10T18:05:16.482Z,3.10
2023-05-10T18:07:47.883Z,2.53
2023-05-10T18:10:17.178Z,2.60
2023-05-10T18:12:47.893Z,2.50
2023-05-10T18:15:17.576Z,3.20
2023-05-10T18:17:46.883Z,2.73
2023-05-10T18:20:16.156Z,3.33
2023-05-10T18:22:45.387Z,3.23
2023-05-10T18:25:14.860Z,3.07
2023-05-10T18:27:52.748Z,3.70
2023-05-10T18:30:33.285Z,3.50
2023-05-10T18:33:32.168Z,3.03
2023-05-10T18:36:09.896Z,3.40
2023-05-10T18:38:43.623Z,3.57
2023-05-10T18:41:17.016Z,4.10
2023-05-10T18:43:47.044Z,3.60
2023-05-10T18:46:25.423Z,3.50
2023-05-10T18:48:56.421Z,3.07
2023-05-10T18:51:31.551Z,3.80
2023-05-10T18:54:05.787Z,4.00
2023-05-10T18:57:07.981Z,4.30
2023-05-10T18:59:42.305Z,5.13
2023-05-10T19:02:19.288Z,4.27
2023-05-10T19:05:17.273Z,4.90
2023-05-10T19:07:55.287Z,4.93
2023-05-10T19:10:24.911Z,4.10
2023-05-10T19:12:54.230Z,3.93
2023-05-10T19:15:24.053Z,3.87
2023-05-10T19:17:58.405Z,4.40
2023-05-10T19:20:27.672Z,3.30
2023-05-10T19:23:09.067Z,4.40
2023-05-10T19:25:41.015Z,4.10
2023-05-10T19:28:11.889Z,3.67
2023-05-10T19:30:43.481Z,4.70
2023-05-10T19:33:14.449Z,3.10
2023-05-10T19:35:43.782Z,3.83
2023-05-10T19:38:12.990Z,3.50
2023-05-10T19:40:42.218Z,3.60
2023-05-10T19:43:11.554Z,3.70
2023-05-10T19:45:41.052Z,3.43
2023-05-10T19:48:15.002Z,3.43
2023-05-10T19:50:47.912Z,2.93
2023-05-10T19:53:17.203Z,3.73
2023-05-10T19:55:46.651Z,3.47
2023-05-10T19:58:15.850Z,3.50
2023-05-10T20:00:45.379Z,3.60
2023-05-10T20:03:14.754Z,4.50
2023-05-10T20:05:45.635Z,4.47
2023-05-10T20:08:15.744Z,3.43
2023-05-10T20:10:46.815Z,3.63
2023-05-10T20:13:16.393Z,3.33
2023-05-10T20:15:45.730Z,4.10
2023-05-10T20:18:15.091Z,3.07
2023-05-10T20:20:46.963Z,4.43
2023-05-10T20:23:16.836Z,4.13
2023-05-10T20:25:46.433Z,3.80
2023-05-10T20:28:16.641Z,3.87
2023-05-10T20:30:45.949Z,3.37
2023-05-10T20:33:18.207Z,3.60
2023-05-10T20:35:50.495Z,4.73
2023-05-10T20:38:20.253Z,4.43
2023-05-10T20:40:49.792Z,3.97
2023-05-10T20:43:19.555Z,4.03
2023-05-10T20:45:49.205Z,3.70
2023-05-10T20:48:20.260Z,4.10
2023-05-10T20:50:52.739Z,4.23
2023-05-10T20:53:22.324Z,3.70
2023-05-10T20:55:52.991Z,4.90
2023-05-10T20:58:23.041Z,3.87
2023-05-10T21:00:53.149Z,4.10
2023-05-10T21:03:21.455Z,4.70
2023-05-10T21:05:51.418Z,4.70
2023-05-10T21:08:19.690Z,4.93
2023-05-10T21:10:48.086Z,4.83
2023-05-10T21:13:19.672Z,5.10
2023-05-10T21:15:48.446Z,5.00
2023-05-10T21:18:16.971Z,4.70
2023-05-10T21:20:45.320Z,4.93
2023-05-10T21:23:15.109Z,4.50
2023-05-10T21:25:44.407Z,5.33
2023-05-10T21:28:15.241Z,5.00
2023-05-10T21:30:55.625Z,4.77
2023-05-10T21:33:27.653Z,5.00
2023-05-10T21:35:55.927Z,4.57
2023-05-10T21:38:25.821Z,4.93
2023-05-10T21:40:54.095Z,5.33
2023-05-10T21:43:22.346Z,5.60
2023-05-10T21:45:50.863Z,5.00
2023-05-10T21:48:19.092Z,4.97
2023-05-10T21:50:48.194Z,4.97
2023-05-10T21:53:16.450Z,4.40
2023-05-10T21:55:47.175Z,4.80
2023-05-10T21:58:15.644Z,4.33
2023-05-10T22:00:44.429Z,4.60
2023-05-10T22:03:13.514Z,5.20
2023-05-10T22:05:41.839Z,5.47
2023-05-10T22:08:09.978Z,4.37
2023-05-10T22:10:38.236Z,4.50
2023-05-10T22:13:07.997Z,5.23
2023-05-10T22:15:36.979Z,4.77
2023-05-10T22:18:06.084Z,4.47
2023-05-10T22:20:36.254Z,4.80
2023-05-10T22:23:04.577Z,4.33
2023-05-10T22:25:32.892Z,4.20
2023-05-10T22:28:01.887Z,4.50
2023-05-10T22:30:33.048Z,4.10
2023-05-10T22:33:01.751Z,4.63
2023-05-10T22:35:30.696Z,4.77
2023-05-10T22:37:59.226Z,4.73
2023-05-10T22:40:27.949Z,4.43
2023-05-10T22:42:56.552Z,4.60
2023-05-10T22:45:25.131Z,4.47
2023-05-10T22:47:54.744Z,4.77
2023-05-10T22:50:25.683Z,4.03
2023-05-10T22:52:54.986Z,5.40
2023-05-10T22:55:23.757Z,5.57
2023-05-10T22:57:55.948Z,5.70
2023-05-10T23:00:26.504Z,5.70
2023-05-10T23:02:57.809Z,6.03
2023-05-10T23:05:26.850Z,5.33
2023-05-10T23:07:55.619Z,6.27
2023-05-10T23:10:24.375Z,5.40
2023-05-10T23:12:52.747Z,6.40
2023-05-10T23:15:20.926Z,5.97
2023-05-10T23:17:49.230Z,6.63
2023-05-10T23:20:19.389Z,5.90
2023-05-10T23:22:48.114Z,5.90
2023-05-10T23:25:17.040Z,6.20
2023-05-10T23:27:45.340Z,6.30
2023-05-10T23:30:14.045Z,6.47
2023-05-10T23:32:42.310Z,6.80
2023-05-10T23:35:10.987Z,5.67
2023-05-10T23:37:42.073Z,6.77
2023-05-10T23:40:11.203Z,6.00
2023-05-10T23:42:39.500Z,5.77
2023-05-10T23:45:08.333Z,6.40
2023-05-10T23:47:36.528Z,6.03
2023-05-10T23:50:05.354Z,7.67
2023-05-10T23:52:33.658Z,6.80
2023-05-10T23:55:03.300Z,5.33
2023-05-10T23:57:31.529Z,7.10
2023-05-10T23:59:59.771Z,8.73
